createdAt,value
2017-10-05T00:00:33.198Z,8.60
2017-10-05T00:03:00.715Z,8.45
2017-10-05T00:05:28.218Z,8.36
2017-10-05T00:07:55.724Z,8.51
2017-10-05T00:10:23.258Z,8.76
2017-10-05T00:12:50.788Z,8.86
2017-10-05T00:15:18.293Z,8.91
2017-10-05T00:17:45.803Z,8.85
2017-10-05T00:20:13.333Z,8.73
2017-10-05T00:22:40.839Z,8.74
2017-10-05T00:25:08.351Z,8.99
2017-10-05T00:27:35.867Z,8.94
2017-10-05T00:30:03.399Z,9.02
2017-10-05T00:32:30.925Z,9.08
2017-10-05T00:34:58.432Z,9.02
2017-10-05T00:37:25.943Z,8.97
2017-10-05T00:39:53.450Z,9.00
2017-10-05T00:42:20.972Z,9.23
2017-10-05T00:44:48.472Z,9.05
2017-10-05T00:47:15.984Z,9.09
2017-10-05T00:49:43.480Z,9.17
2017-10-05T00:52:10.984Z,9.35
2017-10-05T00:54:38.507Z,9.29
2017-10-05T00:57:06.019Z,9.30
2017-10-05T00:59:33.527Z,9.38
2017-10-05T01:02:01.064Z,9.66
2017-10-05T01:04:28.570Z,9.43
2017-10-05T01:06:56.070Z,9.34
2017-10-05T01:09:23.572Z,9.36
2017-10-05T01:11:51.120Z,9.49
2017-10-05T01:14:18.678Z,9.66
2017-10-05T01:16:46.243Z,9.62
2017-10-05T01:19:13.743Z,9.48
2017-10-05T01:21:41.269Z,9.36
2017-10-05T01:24:08.787Z,9.20
2017-10-05T01:26:36.390Z,9.54
2017-10-05T01:29:03.886Z,9.62
2017-10-05T01:31:31.387Z,9.37
2017-10-05T01:33:58.904Z,9.37
2017-10-05T01:36:26.429Z,9.58
2017-10-05T01:38:53.927Z,9.86
2017-10-05T01:41:21.435Z,9.52
2017-10-05T01:43:48.936Z,9.49
2017-10-05T01:46:16.446Z,9.33
2017-10-05T01:48:43.964Z,9.22
2017-10-05T01:51:11.465Z,9.32
2017-10-05T01:53:39.000Z,9.38
2017-10-05T01:56:06.503Z,9.49
2017-10-05T01:58:34.023Z,9.68
2017-10-05T02:01:01.638Z,9.79
2017-10-05T02:03:29.144Z,9.73
2017-10-05T02:05:56.650Z,9.47
2017-10-05T02:08:24.168Z,9.46
2017-10-05T02:10:51.695Z,9.21
2017-10-05T02:13:19.195Z,8.88
2017-10-05T02:15:46.704Z,9.08
2017-10-05T02:18:14.206Z,9.15
2017-10-05T02:20:41.710Z,9.09
2017-10-05T02:23:09.215Z,9.08
2017-10-05T02:25:36.738Z,9.12
2017-10-05T02:28:04.243Z,8.84
2017-10-05T02:30:31.746Z,8.83
2017-10-05T02:32:59.263Z,8.78
2017-10-05T02:35:26.785Z,9.07
2017-10-05T02:37:54.283Z,8.77
2017-10-05T02:40:21.767Z,8.78
2017-10-05T02:42:49.373Z,8.94
2017-10-05T02:45:16.888Z,9.14
2017-10-05T02:47:44.439Z,9.53
2017-10-05T02:50:11.943Z,9.75
2017-10-05T02:52:39.442Z,10.15
2017-10-05T02:55:06.964Z,10.18
2017-10-05T02:57:34.509Z,10.60
2017-10-05T03:00:02.032Z,10.74
2017-10-05T03:02:29.543Z,10.67
2017-10-05T03:04:57.083Z,10.76
2017-10-05T03:07:24.578Z,10.88
2017-10-05T03:09:52.108Z,11.08
2017-10-05T03:12:19.615Z,11.05
2017-10-05T03:14:47.111Z,11.02
2017-10-05T03:17:14.625Z,11.18
2017-10-05T03:19:42.195Z,11.22
2017-10-05T03:22:09.703Z,11.09
2017-10-05T03:24:37.208Z,11.00
2017-10-05T03:27:04.720Z,10.93
2017-10-05T03:29:32.227Z,11.01
2017-10-05T03:31:59.794Z,10.94
2017-10-05T03:34:27.313Z,10.78
2017-10-05T03:36:54.840Z,10.68
2017-10-05T03:39:22.340Z,10.60
2017-10-05T03:41:49.870Z,10.08
2017-10-05T03:44:17.367Z,9.83
2017-10-05T03:46:44.878Z,9.64
2017-10-05T03:49:12.389Z,9.36
2017-10-05T03:51:39.896Z,9.15
2017-10-05T03:54:07.677Z,8.84
2017-10-05T03:56:35.174Z,8.62
2017-10-05T03:59:02.764Z,8.95
2017-10-05T04:01:30.275Z,9.48
2017-10-05T04:03:57.766Z,9.43
2017-10-05T04:06:25.258Z,9.17
2017-10-05T04:08:52.777Z,8.95
2017-10-05T04:11:20.291Z,8.64
2017-10-05T04:13:47.792Z,8.26
2017-10-05T04:16:16.154Z,8.17
2017-10-05T04:18:43.646Z,7.88
2017-10-05T04:21:11.169Z,7.54
2017-10-05T04:23:39.568Z,7.53
2017-10-05T04:26:07.070Z,7.83
2017-10-05T04:28:34.578Z,8.10
2017-10-05T04:31:02.102Z,7.90
2017-10-05T04:33:29.631Z,7.65
2017-10-05T04:35:57.126Z,7.68
2017-10-05T04:38:24.632Z,7.66
2017-10-05T04:40:52.304Z,7.55
2017-10-05T04:43:19.858Z,7.56
2017-10-05T04:45:47.367Z,7.98
2017-10-05T04:48:14.868Z,7.71
2017-10-05T04:50:42.404Z,7.97
2017-10-05T04:53:09.915Z,7.98
2017-10-05T04:55:37.447Z,8.43
2017-10-05T04:58:04.969Z,8.41
2017-10-05T05:00:32.484Z,8.37
2017-10-05T05:03:00.012Z,8.26
2017-10-05T05:05:27.542Z,8.63
2017-10-05T05:07:55.090Z,8.88
2017-10-05T05:10:22.612Z,9.38
2017-10-05T05:12:50.109Z,9.44
2017-10-05T05:15:17.607Z,9.58
2017-10-05T05:17:45.107Z,9.82
2017-10-05T05:20:12.616Z,9.83
2017-10-05T05:22:40.114Z,10.02
2017-10-05T05:25:07.634Z,10.20
2017-10-05T05:27:36.509Z,10.20
2017-10-05T05:30:04.061Z,10.44
2017-10-05T05:32:31.570Z,10.49
2017-10-05T05:34:59.706Z,10.42
2017-10-05T05:37:29.762Z,10.47
2017-10-05T05:39:57.285Z,10.46
2017-10-05T05:42:24.801Z,10.38
2017-10-05T05:44:52.303Z,10.48
2017-10-05T05:47:19.832Z,10.64
2017-10-05T05:49:47.379Z,10.58
2017-10-05T05:52:14.888Z,10.59
2017-10-05T05:54:42.392Z,10.60
2017-10-05T05:57:09.896Z,10.60
2017-10-05T05:59:37.434Z,10.63
2017-10-05T06:02:05.083Z,10.67
2017-10-05T06:04:32.594Z,10.64
2017-10-05T06:07:00.108Z,10.63
2017-10-05T06:09:27.605Z,10.62
2017-10-05T06:11:55.117Z,10.73
2017-10-05T06:14:22.635Z,10.73
2017-10-05T06:16:55.286Z,10.83
2017-10-05T06:19:22.816Z,11.02
2017-10-05T06:21:50.328Z,11.20
2017-10-05T06:24:17.852Z,11.41
2017-10-05T06:26:45.370Z,11.48
2017-10-05T06:29:12.883Z,11.61
2017-10-05T06:31:40.400Z,11.60
2017-10-05T06:34:07.902Z,11.54
2017-10-05T06:36:35.426Z,11.35
2017-10-05T06:39:02.934Z,11.53
2017-10-05T06:41:30.447Z,11.38
2017-10-05T06:43:57.966Z,11.32
2017-10-05T06:46:25.470Z,11.21
2017-10-05T06:48:52.999Z,11.29
2017-10-05T06:51:20.546Z,11.27
2017-10-05T06:53:48.081Z,11.54
2017-10-05T06:56:15.620Z,11.52
2017-10-05T06:58:43.135Z,11.80
2017-10-05T07:01:10.666Z,11.91
2017-10-05T07:03:38.248Z,11.95
2017-10-05T07:06:05.746Z,12.02
2017-10-05T07:08:33.254Z,11.93
2017-10-05T07:11:00.767Z,11.98
2017-10-05T07:13:28.294Z,12.02
2017-10-05T07:15:55.814Z,12.11
2017-10-05T07:18:23.325Z,12.15
2017-10-05T07:20:50.981Z,12.30
2017-10-05T07:23:18.518Z,12.64
2017-10-05T07:25:46.030Z,12.98
2017-10-05T07:28:13.567Z,13.46
2017-10-05T07:30:41.078Z,13.63
2017-10-05T07:33:08.601Z,13.71
2017-10-05T07:35:36.124Z,13.83
2017-10-05T07:38:03.646Z,13.92
2017-10-05T07:40:31.155Z,14.26
2017-10-05T07:42:58.660Z,14.53
2017-10-05T07:45:26.183Z,14.56
2017-10-05T07:47:53.703Z,14.73
2017-10-05T07:50:21.224Z,14.64
2017-10-05T07:52:48.840Z,14.99
2017-10-05T07:55:16.351Z,15.34
2017-10-05T07:57:43.878Z,16.21
2017-10-05T08:00:11.413Z,17.00
2017-10-05T08:02:38.911Z,17.46
2017-10-05T08:05:06.408Z,17.75
2017-10-05T08:07:33.904Z,19.12
2017-10-05T08:10:01.432Z,19.53
2017-10-05T08:12:28.941Z,19.41
2017-10-05T08:14:56.483Z,21.10
2017-10-05T08:17:23.983Z,21.44
2017-10-05T08:19:51.494Z,21.15
2017-10-05T08:22:19.027Z,22.54
2017-10-05T08:24:46.556Z,22.21
2017-10-05T08:27:14.060Z,21.59
2017-10-05T08:29:41.579Z,22.88
2017-10-05T08:32:09.098Z,24.48
2017-10-05T08:34:36.624Z,24.10
2017-10-05T08:37:04.185Z,24.67
2017-10-05T08:39:31.738Z,24.99
2017-10-05T08:41:59.247Z,25.77
2017-10-05T08:44:26.752Z,25.80
2017-10-05T08:46:54.272Z,24.62
2017-10-05T08:49:21.805Z,25.12
2017-10-05T08:51:49.316Z,26.70
2017-10-05T08:54:16.824Z,26.55
2017-10-05T08:56:44.331Z,26.16
2017-10-05T08:59:11.838Z,28.61
2017-10-05T09:01:39.350Z,24.74
2017-10-05T09:04:06.887Z,26.79
2017-10-05T09:06:34.394Z,25.60
2017-10-05T09:09:01.918Z,25.84
2017-10-05T09:11:29.432Z,26.57
2017-10-05T09:13:57.004Z,27.28
2017-10-05T09:16:24.505Z,24.47
2017-10-05T09:18:52.024Z,24.77
2017-10-05T09:21:19.528Z,23.59
2017-10-05T09:23:47.079Z,24.57
2017-10-05T09:26:14.597Z,26.09
2017-10-05T09:28:42.199Z,25.34
2017-10-05T09:31:09.741Z,26.11
2017-10-05T09:33:37.257Z,26.85
2017-10-05T09:36:04.759Z,25.56
2017-10-05T09:38:32.274Z,25.87
2017-10-05T09:40:59.786Z,26.27
2017-10-05T09:43:27.287Z,25.42
2017-10-05T09:45:54.842Z,24.79
2017-10-05T09:48:22.376Z,25.91
2017-10-05T09:50:49.891Z,25.28
2017-10-05T09:53:17.433Z,25.43
2017-10-05T09:55:44.958Z,25.66
2017-10-05T09:58:12.470Z,25.39
2017-10-05T10:00:40.015Z,24.38
2017-10-05T10:03:07.521Z,26.39
2017-10-05T10:05:35.051Z,26.13
2017-10-05T10:08:02.559Z,25.94
2017-10-05T10:10:30.087Z,26.25
2017-10-05T10:12:57.619Z,26.64
2017-10-05T10:15:25.135Z,26.72
2017-10-05T10:17:52.655Z,26.93
2017-10-05T10:20:20.176Z,25.63
2017-10-05T10:22:47.700Z,27.77
2017-10-05T10:25:15.207Z,28.19
2017-10-05T10:27:42.723Z,27.77
2017-10-05T10:30:10.234Z,27.46
2017-10-05T10:32:37.762Z,28.75
2017-10-05T10:35:05.360Z,26.22
2017-10-05T10:37:32.880Z,30.03
2017-10-05T10:40:00.382Z,27.24
2017-10-05T10:42:27.901Z,27.18
2017-10-05T10:44:55.412Z,28.78
2017-10-05T10:47:22.923Z,28.40
2017-10-05T10:49:50.468Z,28.28
2017-10-05T10:52:17.986Z,28.31
2017-10-05T10:54:45.504Z,27.38
2017-10-05T10:57:13.024Z,27.46
2017-10-05T10:59:40.553Z,28.33
2017-10-05T11:02:08.066Z,28.91
2017-10-05T11:04:35.571Z,31.21
2017-10-05T11:07:03.095Z,28.41
2017-10-05T11:09:30.592Z,29.20
2017-10-05T11:11:58.094Z,30.76
2017-10-05T11:14:25.616Z,29.61
2017-10-05T11:16:53.119Z,29.33
2017-10-05T11:19:20.631Z,27.30
2017-10-05T11:21:48.158Z,29.97
2017-10-05T11:24:15.795Z,28.85
2017-10-05T11:26:43.590Z,29.11
2017-10-05T11:29:11.122Z,28.51
2017-10-05T11:31:38.652Z,28.78
2017-10-05T11:34:06.264Z,27.82
2017-10-05T11:36:33.782Z,26.60
2017-10-05T11:39:01.303Z,26.78
2017-10-05T11:41:28.813Z,28.23
2017-10-05T11:43:56.338Z,28.05
2017-10-05T11:46:23.863Z,28.13
2017-10-05T11:48:51.389Z,27.44
2017-10-05T11:51:18.900Z,25.85
2017-10-05T11:53:46.417Z,25.05
2017-10-05T11:56:13.954Z,24.72
2017-10-05T11:58:41.472Z,26.51
2017-10-05T12:01:08.976Z,26.74
2017-10-05T12:03:36.485Z,27.69
2017-10-05T12:06:03.998Z,27.38
2017-10-05T12:08:31.547Z,27.96
2017-10-05T12:10:59.066Z,26.47
2017-10-05T12:13:26.682Z,28.05
2017-10-05T12:15:54.207Z,28.40
2017-10-05T12:18:21.723Z,28.05
2017-10-05T12:20:49.245Z,27.30
2017-10-05T12:23:16.806Z,26.15
2017-10-05T12:25:44.320Z,27.67
2017-10-05T12:28:11.829Z,27.32
2017-10-05T12:30:46.876Z,26.68
2017-10-05T12:33:14.390Z,27.74
2017-10-05T12:35:41.969Z,27.76
2017-10-05T12:38:09.497Z,27.25
2017-10-05T12:40:37.015Z,25.53
2017-10-05T12:43:04.526Z,24.96
2017-10-05T12:45:32.034Z,25.26
2017-10-05T12:47:59.556Z,25.81
2017-10-05T12:50:27.106Z,26.34
2017-10-05T12:52:54.624Z,27.84
2017-10-05T12:55:22.135Z,27.37
2017-10-05T12:57:49.688Z,28.20
2017-10-05T13:00:17.224Z,27.03
2017-10-05T13:02:44.736Z,25.03
2017-10-05T13:05:12.241Z,24.62
2017-10-05T13:07:39.751Z,24.79
2017-10-05T13:10:07.280Z,22.70
2017-10-05T13:12:34.791Z,22.06
2017-10-05T13:15:02.304Z,22.20
2017-10-05T13:17:29.846Z,24.65
2017-10-05T13:19:57.351Z,23.47
2017-10-05T13:22:24.857Z,24.51
2017-10-05T13:24:52.367Z,24.03
2017-10-05T13:27:19.880Z,23.51
2017-10-05T13:29:47.396Z,22.19
2017-10-05T13:32:15.004Z,21.68
2017-10-05T13:34:42.530Z,21.64
2017-10-05T13:37:10.049Z,21.48
2017-10-05T13:39:37.589Z,20.82
2017-10-05T13:42:05.100Z,21.19
2017-10-05T13:44:32.636Z,21.66
2017-10-05T13:47:00.163Z,21.85
2017-10-05T13:49:27.672Z,21.40
2017-10-05T13:51:55.194Z,21.47
2017-10-05T13:54:22.735Z,21.41
2017-10-05T13:56:50.244Z,21.12
2017-10-05T13:59:17.781Z,21.02
2017-10-05T14:01:45.304Z,20.37
2017-10-05T14:04:12.810Z,20.86
2017-10-05T14:06:40.344Z,22.99
2017-10-05T14:09:07.863Z,23.11
2017-10-05T14:11:35.416Z,21.30
2017-10-05T14:14:02.919Z,21.89
2017-10-05T14:16:30.424Z,21.22
2017-10-05T14:18:57.928Z,21.65
2017-10-05T14:21:25.441Z,21.02
2017-10-05T14:23:52.972Z,20.56
2017-10-05T14:26:20.486Z,20.53
2017-10-05T14:28:48.016Z,20.04
2017-10-05T14:31:15.535Z,19.55
2017-10-05T14:33:43.063Z,19.33
2017-10-05T14:36:10.609Z,19.14
2017-10-05T14:38:38.264Z,19.09
2017-10-05T14:41:05.767Z,19.01
2017-10-05T14:43:33.287Z,18.75
2017-10-05T14:46:00.800Z,18.67
2017-10-05T14:48:28.307Z,18.70
2017-10-05T14:50:55.883Z,18.28
2017-10-05T14:53:23.404Z,18.44
2017-10-05T14:55:50.934Z,18.25
2017-10-05T14:58:18.452Z,18.49
2017-10-05T15:00:45.958Z,18.23
2017-10-05T15:03:13.484Z,17.83
2017-10-05T15:05:41.006Z,17.91
2017-10-05T15:08:08.545Z,17.90
2017-10-05T15:10:36.055Z,18.10
2017-10-05T15:13:03.550Z,17.84
2017-10-05T15:15:31.056Z,17.68
2017-10-05T15:17:58.584Z,17.65
2017-10-05T15:20:26.243Z,17.27
2017-10-05T15:22:53.764Z,17.23
2017-10-05T15:25:21.300Z,17.18
2017-10-05T15:27:48.818Z,17.04
2017-10-05T15:30:16.368Z,17.00
2017-10-05T15:32:43.898Z,17.04
2017-10-05T15:35:11.422Z,17.03
2017-10-05T15:37:39.035Z,16.95
2017-10-05T15:40:06.555Z,16.78
2017-10-05T15:42:34.072Z,16.96
2017-10-05T15:45:01.579Z,16.48
2017-10-05T15:47:29.137Z,16.19
2017-10-05T15:49:56.640Z,15.80
2017-10-05T15:52:24.196Z,15.52
2017-10-05T15:54:51.712Z,15.53
2017-10-05T15:57:19.226Z,15.31
2017-10-05T15:59:46.751Z,15.11
2017-10-05T16:02:14.315Z,15.04
2017-10-05T16:04:41.814Z,15.00
2017-10-05T16:07:09.376Z,14.99
2017-10-05T16:09:36.895Z,14.97
2017-10-05T16:12:04.405Z,14.78
2017-10-05T16:14:32.273Z,14.82
2017-10-05T16:16:59.789Z,14.89
2017-10-05T16:19:27.305Z,15.02
2017-10-05T16:21:54.846Z,14.74
2017-10-05T16:24:22.507Z,14.53
2017-10-05T16:26:50.038Z,14.51
2017-10-05T16:29:17.582Z,14.35
2017-10-05T16:31:45.095Z,14.32
2017-10-05T16:34:12.595Z,14.28
2017-10-05T16:36:40.115Z,13.99
2017-10-05T16:39:07.631Z,13.99
2017-10-05T16:41:35.154Z,14.28
2017-10-05T16:44:02.688Z,13.97
2017-10-05T16:46:30.202Z,13.77
2017-10-05T16:48:57.736Z,13.76
2017-10-05T16:51:25.257Z,13.86
2017-10-05T16:53:52.771Z,13.95
2017-10-05T16:56:20.279Z,14.11
2017-10-05T16:58:47.806Z,13.97
2017-10-05T17:01:15.351Z,14.00
2017-10-05T17:03:42.934Z,13.93
2017-10-05T17:06:10.451Z,13.71
2017-10-05T17:08:37.959Z,13.93
2017-10-05T17:11:05.494Z,14.10
2017-10-05T17:13:33.044Z,14.06
2017-10-05T17:16:00.540Z,13.85
2017-10-05T17:18:28.058Z,13.78
2017-10-05T17:20:55.644Z,14.00
2017-10-05T17:23:23.180Z,13.89
2017-10-05T17:25:50.707Z,13.77
2017-10-05T17:28:18.238Z,13.70
2017-10-05T17:30:45.779Z,13.72
2017-10-05T17:33:13.306Z,13.72
2017-10-05T17:35:40.896Z,13.49
2017-10-05T17:38:08.420Z,13.46
2017-10-05T17:40:35.941Z,13.45
2017-10-05T17:43:03.468Z,13.65
2017-10-05T17:45:31.003Z,13.47
2017-10-05T17:47:58.517Z,13.66
2017-10-05T17:50:26.065Z,13.68
2017-10-05T17:52:53.640Z,13.52
2017-10-05T17:55:21.215Z,13.41
2017-10-05T17:57:48.749Z,13.43
2017-10-05T18:00:16.267Z,13.10
2017-10-05T18:02:43.843Z,13.13
2017-10-05T18:05:11.700Z,13.35
2017-10-05T18:07:39.382Z,13.74
2017-10-05T18:10:07.252Z,13.28
2017-10-05T18:12:35.467Z,12.82
2017-10-05T18:15:03.856Z,12.58
2017-10-05T18:17:31.403Z,12.48
2017-10-05T18:19:58.908Z,12.35
2017-10-05T18:22:26.603Z,11.98
2017-10-05T18:24:54.137Z,12.07
2017-10-05T18:27:21.778Z,12.14
2017-10-05T18:29:49.282Z,11.82
2017-10-05T18:32:17.744Z,11.64
2017-10-05T18:34:45.312Z,11.70
2017-10-05T18:37:12.855Z,11.63
2017-10-05T18:39:40.378Z,11.47
2017-10-05T18:42:07.892Z,11.46
2017-10-05T18:44:35.419Z,11.43
2017-10-05T18:47:02.970Z,11.28
2017-10-05T18:49:30.511Z,11.30
2017-10-05T18:51:58.060Z,11.24
2017-10-05T18:54:25.624Z,11.49
2017-10-05T18:56:53.244Z,11.30
2017-10-05T18:59:20.777Z,11.13
2017-10-05T19:01:48.352Z,11.12
2017-10-05T19:04:15.864Z,11.19
2017-10-05T19:06:43.379Z,11.36
2017-10-05T19:09:10.914Z,11.29
2017-10-05T19:11:38.503Z,11.23
2017-10-05T19:14:06.094Z,11.26
2017-10-05T19:16:33.656Z,11.31
2017-10-05T19:19:01.220Z,11.30
2017-10-05T19:21:28.755Z,11.21
2017-10-05T19:23:56.268Z,11.13
2017-10-05T19:26:23.925Z,11.22
2017-10-05T19:28:51.494Z,11.33
2017-10-05T19:31:19.003Z,11.37
2017-10-05T19:33:46.641Z,11.03
2017-10-05T19:36:14.159Z,11.19
2017-10-05T19:38:41.686Z,11.20
2017-10-05T19:41:09.220Z,11.30
2017-10-05T19:43:36.818Z,11.45
2017-10-05T19:46:04.375Z,11.20
2017-10-05T19:48:31.931Z,10.87
2017-10-05T19:50:59.444Z,11.02
2017-10-05T19:53:27.021Z,11.02
2017-10-05T19:55:54.716Z,11.04
2017-10-05T19:58:22.236Z,10.84
2017-10-05T20:00:49.820Z,10.75
2017-10-05T20:03:17.354Z,10.73
2017-10-05T20:05:44.890Z,10.67
2017-10-05T20:08:12.419Z,10.64
2017-10-05T20:10:39.936Z,11.19
2017-10-05T20:13:07.526Z,10.82
2017-10-05T20:15:35.119Z,10.78
2017-10-05T20:18:08.227Z,10.70
2017-10-05T20:20:50.262Z,10.70
2017-10-05T20:26:24.710Z,10.34
2017-10-05T20:28:53.700Z,10.19
2017-10-05T20:31:26.923Z,10.45
2017-10-05T20:33:54.465Z,10.94
2017-10-05T20:36:22.000Z,10.49
2017-10-05T20:38:49.528Z,10.37
2017-10-05T20:41:17.069Z,10.25
2017-10-05T20:43:44.575Z,10.04
2017-10-05T20:46:12.099Z,9.88
2017-10-05T20:48:39.610Z,9.68
2017-10-05T20:51:07.115Z,9.67
2017-10-05T20:53:34.653Z,9.65
2017-10-05T20:56:02.160Z,9.86
2017-10-05T20:58:29.692Z,9.74
2017-10-05T21:00:57.200Z,9.71
2017-10-05T21:03:24.725Z,9.58
2017-10-05T21:05:52.303Z,9.55
2017-10-05T21:08:19.922Z,9.59
2017-10-05T21:10:47.424Z,9.57
2017-10-05T21:13:14.952Z,9.39
2017-10-05T21:15:42.463Z,9.22
2017-10-05T21:18:10.014Z,9.20
2017-10-05T21:20:37.565Z,9.00
2017-10-05T21:23:05.062Z,8.98
2017-10-05T21:25:32.602Z,9.08
2017-10-05T21:28:00.140Z,8.95
2017-10-05T21:30:27.666Z,8.90
2017-10-05T21:32:55.177Z,8.70
2017-10-05T21:35:22.689Z,8.71
2017-10-05T21:37:50.223Z,8.51
2017-10-05T21:40:17.914Z,8.70
2017-10-05T21:42:45.482Z,8.79
2017-10-05T21:45:13.026Z,8.97
2017-10-05T21:47:40.559Z,8.53
2017-10-05T21:50:08.067Z,8.75
2017-10-05T21:52:35.614Z,8.57
2017-10-05T21:55:03.174Z,8.60
2017-10-05T21:57:30.730Z,8.44
2017-10-05T21:59:58.292Z,8.40
2017-10-05T22:02:25.956Z,7.91
2017-10-05T22:04:53.502Z,7.90
2017-10-05T22:07:21.035Z,7.96
2017-10-05T22:09:48.584Z,8.08
2017-10-05T22:12:16.291Z,8.10
2017-10-05T22:14:43.849Z,8.06
2017-10-05T22:17:11.405Z,7.98
2017-10-05T22:19:38.969Z,7.90
2017-10-05T22:22:06.539Z,7.93
2017-10-05T22:24:34.092Z,8.20
2017-10-05T22:27:01.635Z,8.18
2017-10-05T22:29:29.191Z,8.08
2017-10-05T22:31:56.768Z,8.10
2017-10-05T22:34:24.305Z,8.39
2017-10-05T22:36:51.854Z,8.23
2017-10-05T22:39:19.383Z,8.16
2017-10-05T22:41:46.953Z,8.23
2017-10-05T22:44:14.494Z,8.16
2017-10-05T22:46:42.029Z,8.28
2017-10-05T22:49:09.564Z,8.29
2017-10-05T22:51:37.121Z,8.04
2017-10-05T22:54:04.661Z,7.77
2017-10-05T22:56:32.194Z,7.67
2017-10-05T22:58:59.737Z,7.47
2017-10-05T23:01:27.274Z,7.29
2017-10-05T23:03:54.808Z,7.19
2017-10-05T23:06:22.345Z,7.26
2017-10-05T23:08:49.879Z,7.26
2017-10-05T23:11:17.508Z,7.21
2017-10-05T23:13:45.052Z,7.12
2017-10-05T23:16:12.594Z,7.29
2017-10-05T23:18:40.173Z,7.35
2017-10-05T23:21:07.713Z,7.49
2017-10-05T23:23:35.256Z,7.43
2017-10-05T23:26:02.808Z,7.40
2017-10-05T23:28:30.347Z,7.42
2017-10-05T23:30:57.898Z,7.33
2017-10-05T23:33:25.454Z,7.22
2017-10-05T23:35:53.009Z,7.26
2017-10-05T23:38:20.544Z,7.28
2017-10-05T23:40:48.088Z,7.32
2017-10-05T23:43:15.639Z,7.32
2017-10-05T23:45:43.171Z,7.09
2017-10-05T23:48:10.712Z,7.13
2017-10-05T23:50:38.260Z,7.16
2017-10-05T23:53:05.803Z,7.27
2017-10-05T23:55:33.417Z,7.21
2017-10-05T23:58:00.953Z,6.99
